Terminal Aerodrome Forecast
Issued by NWS Grand Forks, ND

Home | Current Version | Previous Version | Graphics & Text | Print | Product List | Glossary On
Versions: 1 2 3 4 5 6 7 8 9 10 11 12 13 14 15 16 17
000
FTUS43 KFGF 170210 AAA
TAFFAR
TAF AMD
KFAR 170210Z 1702/1724 36010KT P6SM OVC020
      TEMPO 1702/1704 OVC006
     FM170400 36006KT P6SM VCSH OVC008
     FM171300 34009KT P6SM BKN010
     FM171400 34009KT P6SM SCT020=

USA.gov is the U.S. government's official web portal to all federal, state and local government web resources and services.